sensor_id;sensor_type;location;lat;lon;timestamp;P1;durP1;ratioP1;P2;durP2;ratioP2
41233;SDS011;26968;42.686;23.352;2023-05-07T00:00:19;16.40;;;11.57;;
41233;SDS011;26968;42.686;23.352;2023-05-07T00:02:45;17.88;;;11.20;;
41233;SDS011;26968;42.686;23.352;2023-05-07T00:05:11;23.45;;;12.13;;
41233;SDS011;26968;42.686;23.352;2023-05-07T00:07:36;22.67;;;11.77;;
41233;SDS011;26968;42.686;23.352;2023-05-07T00:10:02;23.20;;;11.80;;
41233;SDS011;26968;42.686;23.352;2023-05-07T00:12:29;29.05;;;11.88;;
41233;SDS011;26968;42.686;23.352;2023-05-07T00:14:58;23.85;;;11.93;;
41233;SDS011;26968;42.686;23.352;2023-05-07T00:17:24;22.92;;;11.63;;
41233;SDS011;26968;42.686;23.352;2023-05-07T00:19:50;22.38;;;12.90;;
41233;SDS011;26968;42.686;23.352;2023-05-07T00:22:15;18.05;;;11.80;;
41233;SDS011;26968;42.686;23.352;2023-05-07T00:24:41;22.30;;;12.00;;
41233;SDS011;26968;42.686;23.352;2023-05-07T00:27:06;22.20;;;12.10;;
41233;SDS011;26968;42.686;23.352;2023-05-07T00:29:31;22.40;;;11.35;;
41233;SDS011;26968;42.686;23.352;2023-05-07T00:31:57;22.20;;;12.68;;
41233;SDS011;26968;42.686;23.352;2023-05-07T00:34:22;18.42;;;11.43;;
41233;SDS011;26968;42.686;23.352;2023-05-07T00:36:48;23.27;;;12.68;;
41233;SDS011;26968;42.686;23.352;2023-05-07T00:39:13;22.35;;;11.60;;
41233;SDS011;26968;42.686;23.352;2023-05-07T00:41:39;24.40;;;11.15;;
41233;SDS011;26968;42.686;23.352;2023-05-07T00:44:04;20.63;;;12.13;;
41233;SDS011;26968;42.686;23.352;2023-05-07T00:46:30;20.80;;;12.27;;
41233;SDS011;26968;42.686;23.352;2023-05-07T00:48:56;21.75;;;12.10;;
41233;SDS011;26968;42.686;23.352;2023-05-07T00:51:22;21.67;;;11.75;;
41233;SDS011;26968;42.686;23.352;2023-05-07T00:53:50;20.50;;;11.32;;
41233;SDS011;26968;42.686;23.352;2023-05-07T00:56:15;24.23;;;11.55;;
41233;SDS011;26968;42.686;23.352;2023-05-07T00:58:41;22.95;;;11.73;;
41233;SDS011;26968;42.686;23.352;2023-05-07T01:01:07;21.63;;;12.50;;
41233;SDS011;26968;42.686;23.352;2023-05-07T01:03:32;18.35;;;11.05;;
41233;SDS011;26968;42.686;23.352;2023-05-07T01:05:58;20.20;;;12.25;;
41233;SDS011;26968;42.686;23.352;2023-05-07T01:08:25;22.83;;;11.95;;
41233;SDS011;26968;42.686;23.352;2023-05-07T01:10:53;17.45;;;11.57;;
41233;SDS011;26968;42.686;23.352;2023-05-07T01:13:19;25.75;;;11.32;;
41233;SDS011;26968;42.686;23.352;2023-05-07T01:15:45;19.05;;;11.23;;
41233;SDS011;26968;42.686;23.352;2023-05-07T01:18:11;21.92;;;11.27;;
41233;SDS011;26968;42.686;23.352;2023-05-07T01:20:36;18.95;;;11.10;;
41233;SDS011;26968;42.686;23.352;2023-05-07T01:23:02;23.30;;;10.65;;
41233;SDS011;26968;42.686;23.352;2023-05-07T01:25:28;17.95;;;10.75;;
41233;SDS011;26968;42.686;23.352;2023-05-07T01:27:55;19.02;;;10.43;;
41233;SDS011;26968;42.686;23.352;2023-05-07T01:30:20;22.10;;;9.65;;
41233;SDS011;26968;42.686;23.352;2023-05-07T01:32:48;17.75;;;9.68;;
41233;SDS011;26968;42.686;23.352;2023-05-07T01:35:18;17.95;;;9.77;;
41233;SDS011;26968;42.686;23.352;2023-05-07T01:37:47;14.32;;;7.97;;
41233;SDS011;26968;42.686;23.352;2023-05-07T01:40:14;19.48;;;8.65;;
41233;SDS011;26968;42.686;23.352;2023-05-07T01:42:40;15.60;;;7.95;;
41233;SDS011;26968;42.686;23.352;2023-05-07T01:45:08;10.93;;;7.60;;
41233;SDS011;26968;42.686;23.352;2023-05-07T01:47:33;15.90;;;7.50;;
41233;SDS011;26968;42.686;23.352;2023-05-07T01:50:01;17.83;;;7.75;;
41233;SDS011;26968;42.686;23.352;2023-05-07T01:52:27;12.85;;;8.05;;
41233;SDS011;26968;42.686;23.352;2023-05-07T01:54:53;11.13;;;7.15;;
41233;SDS011;26968;42.686;23.352;2023-05-07T01:57:18;13.32;;;6.60;;
41233;SDS011;26968;42.686;23.352;2023-05-07T01:59:44;13.68;;;6.82;;
41233;SDS011;26968;42.686;23.352;2023-05-07T02:02:09;18.15;;;6.10;;
41233;SDS011;26968;42.686;23.352;2023-05-07T02:04:34;14.57;;;6.60;;
41233;SDS011;26968;42.686;23.352;2023-05-07T02:07:01;10.68;;;6.60;;
41233;SDS011;26968;42.686;23.352;2023-05-07T02:09:27;12.35;;;7.03;;
41233;SDS011;26968;42.686;23.352;2023-05-07T02:11:52;15.27;;;6.60;;
41233;SDS011;26968;42.686;23.352;2023-05-07T02:14:17;10.40;;;6.28;;
41233;SDS011;26968;42.686;23.352;2023-05-07T02:16:45;12.48;;;7.30;;
41233;SDS011;26968;42.686;23.352;2023-05-07T02:19:10;13.00;;;7.93;;
41233;SDS011;26968;42.686;23.352;2023-05-07T02:21:36;14.18;;;7.68;;
41233;SDS011;26968;42.686;23.352;2023-05-07T02:24:01;11.43;;;7.43;;
41233;SDS011;26968;42.686;23.352;2023-05-07T02:26:26;11.93;;;7.32;;
41233;SDS011;26968;42.686;23.352;2023-05-07T02:28:52;12.15;;;7.70;;
41233;SDS011;26968;42.686;23.352;2023-05-07T02:31:18;13.05;;;8.05;;
41233;SDS011;26968;42.686;23.352;2023-05-07T02:33:44;11.18;;;7.60;;
41233;SDS011;26968;42.686;23.352;2023-05-07T02:36:10;17.48;;;8.05;;
41233;SDS011;26968;42.686;23.352;2023-05-07T02:38:37;10.85;;;8.00;;
41233;SDS011;26968;42.686;23.352;2023-05-07T02:41:02;14.27;;;8.68;;
41233;SDS011;26968;42.686;23.352;2023-05-07T02:43:28;14.45;;;8.98;;
41233;SDS011;26968;42.686;23.352;2023-05-07T02:46:03;17.15;;;10.00;;
41233;SDS011;26968;42.686;23.352;2023-05-07T02:48:30;19.42;;;10.73;;
41233;SDS011;26968;42.686;23.352;2023-05-07T02:50:56;13.57;;;9.98;;
41233;SDS011;26968;42.686;23.352;2023-05-07T02:53:21;17.58;;;10.90;;
41233;SDS011;26968;42.686;23.352;2023-05-07T02:55:47;15.68;;;9.98;;
41233;SDS011;26968;42.686;23.352;2023-05-07T02:58:12;18.25;;;10.82;;
41233;SDS011;26968;42.686;23.352;2023-05-07T03:00:38;15.57;;;11.40;;
41233;SDS011;26968;42.686;23.352;2023-05-07T03:03:03;16.38;;;11.32;;
41233;SDS011;26968;42.686;23.352;2023-05-07T03:05:29;16.98;;;11.20;;
41233;SDS011;26968;42.686;23.352;2023-05-07T03:07:54;17.15;;;10.68;;
41233;SDS011;26968;42.686;23.352;2023-05-07T03:10:19;20.23;;;11.38;;
41233;SDS011;26968;42.686;23.352;2023-05-07T03:12:45;16.70;;;11.25;;
41233;SDS011;26968;42.686;23.352;2023-05-07T03:15:10;18.30;;;10.93;;
41233;SDS011;26968;42.686;23.352;2023-05-07T03:17:39;19.60;;;11.60;;
41233;SDS011;26968;42.686;23.352;2023-05-07T03:20:05;17.45;;;12.63;;
41233;SDS011;26968;42.686;23.352;2023-05-07T03:22:30;21.45;;;12.80;;
41233;SDS011;26968;42.686;23.352;2023-05-07T03:24:56;16.35;;;12.13;;
41233;SDS011;26968;42.686;23.352;2023-05-07T03:27:22;17.35;;;11.98;;
41233;SDS011;26968;42.686;23.352;2023-05-07T03:29:47;24.55;;;12.63;;
41233;SDS011;26968;42.686;23.352;2023-05-07T03:32:13;22.50;;;11.85;;
41233;SDS011;26968;42.686;23.352;2023-05-07T03:34:39;20.45;;;11.65;;
41233;SDS011;26968;42.686;23.352;2023-05-07T03:37:05;20.60;;;12.65;;
41233;SDS011;26968;42.686;23.352;2023-05-07T03:39:30;25.70;;;12.23;;
41233;SDS011;26968;42.686;23.352;2023-05-07T03:41:57;19.73;;;12.57;;
41233;SDS011;26968;42.686;23.352;2023-05-07T03:44:23;19.25;;;12.25;;
41233;SDS011;26968;42.686;23.352;2023-05-07T03:46:48;19.23;;;11.90;;
41233;SDS011;26968;42.686;23.352;2023-05-07T03:49:13;23.35;;;13.32;;
41233;SDS011;26968;42.686;23.352;2023-05-07T03:51:39;16.42;;;12.40;;
41233;SDS011;26968;42.686;23.352;2023-05-07T03:54:04;17.70;;;11.95;;
41233;SDS011;26968;42.686;23.352;2023-05-07T03:56:30;17.15;;;12.82;;
41233;SDS011;26968;42.686;23.352;2023-05-07T03:58:56;19.45;;;12.02;;
41233;SDS011;26968;42.686;23.352;2023-05-07T04:01:21;22.38;;;12.65;;
41233;SDS011;26968;42.686;23.352;2023-05-07T04:03:47;25.55;;;12.85;;
41233;SDS011;26968;42.686;23.352;2023-05-07T04:06:12;30.83;;;13.50;;
41233;SDS011;26968;42.686;23.352;2023-05-07T04:08:38;22.70;;;12.93;;
41233;SDS011;26968;42.686;23.352;2023-05-07T04:11:03;28.67;;;14.30;;
41233;SDS011;26968;42.686;23.352;2023-05-07T04:13:29;30.05;;;14.48;;
41233;SDS011;26968;42.686;23.352;2023-05-07T04:15:55;25.05;;;13.75;;
41233;SDS011;26968;42.686;23.352;2023-05-07T04:18:21;25.33;;;12.68;;
41233;SDS011;26968;42.686;23.352;2023-05-07T04:20:49;23.98;;;13.30;;
41233;SDS011;26968;42.686;23.352;2023-05-07T04:23:15;17.98;;;11.52;;
41233;SDS011;26968;42.686;23.352;2023-05-07T04:25:40;25.17;;;13.32;;
41233;SDS011;26968;42.686;23.352;2023-05-07T04:28:06;24.80;;;13.65;;
41233;SDS011;26968;42.686;23.352;2023-05-07T04:30:32;22.73;;;13.60;;
41233;SDS011;26968;42.686;23.352;2023-05-07T04:32:57;19.27;;;12.90;;
41233;SDS011;26968;42.686;23.352;2023-05-07T04:35:22;26.40;;;13.60;;
41233;SDS011;26968;42.686;23.352;2023-05-07T04:37:48;29.92;;;13.30;;
41233;SDS011;26968;42.686;23.352;2023-05-07T04:40:13;22.85;;;12.60;;
41233;SDS011;26968;42.686;23.352;2023-05-07T04:42:39;25.52;;;12.95;;
41233;SDS011;26968;42.686;23.352;2023-05-07T04:45:05;19.30;;;11.93;;
41233;SDS011;26968;42.686;23.352;2023-05-07T04:47:31;25.70;;;12.35;;
41233;SDS011;26968;42.686;23.352;2023-05-07T04:49:57;19.80;;;12.55;;
41233;SDS011;26968;42.686;23.352;2023-05-07T04:52:23;27.45;;;13.65;;
41233;SDS011;26968;42.686;23.352;2023-05-07T04:54:48;22.08;;;13.13;;
41233;SDS011;26968;42.686;23.352;2023-05-07T04:57:14;32.17;;;12.55;;
41233;SDS011;26968;42.686;23.352;2023-05-07T04:59:39;24.00;;;13.00;;
41233;SDS011;26968;42.686;23.352;2023-05-07T05:02:05;19.70;;;12.30;;
41233;SDS011;26968;42.686;23.352;2023-05-07T05:04:30;22.40;;;12.40;;
41233;SDS011;26968;42.686;23.352;2023-05-07T05:06:56;21.23;;;12.07;;
41233;SDS011;26968;42.686;23.352;2023-05-07T05:09:21;25.25;;;13.68;;
41233;SDS011;26968;42.686;23.352;2023-05-07T05:11:47;24.35;;;13.75;;
41233;SDS011;26968;42.686;23.352;2023-05-07T05:14:12;29.55;;;13.85;;
41233;SDS011;26968;42.686;23.352;2023-05-07T05:16:38;21.10;;;13.27;;
41233;SDS011;26968;42.686;23.352;2023-05-07T05:19:03;24.75;;;12.95;;
41233;SDS011;26968;42.686;23.352;2023-05-07T05:21:28;26.65;;;13.68;;
41233;SDS011;26968;42.686;23.352;2023-05-07T05:23:54;19.77;;;13.73;;
41233;SDS011;26968;42.686;23.352;2023-05-07T05:26:19;22.95;;;13.85;;
41233;SDS011;26968;42.686;23.352;2023-05-07T05:28:46;24.35;;;13.63;;
41233;SDS011;26968;42.686;23.352;2023-05-07T05:31:12;20.60;;;14.35;;
41233;SDS011;26968;42.686;23.352;2023-05-07T05:33:39;17.48;;;12.30;;
41233;SDS011;26968;42.686;23.352;2023-05-07T05:36:05;25.45;;;13.77;;
41233;SDS011;26968;42.686;23.352;2023-05-07T05:38:31;20.38;;;13.13;;
41233;SDS011;26968;42.686;23.352;2023-05-07T05:40:56;19.33;;;13.30;;
41233;SDS011;26968;42.686;23.352;2023-05-07T05:43:22;25.65;;;15.30;;
41233;SDS011;26968;42.686;23.352;2023-05-07T05:45:47;27.75;;;14.43;;
41233;SDS011;26968;42.686;23.352;2023-05-07T05:48:13;19.75;;;13.60;;
41233;SDS011;26968;42.686;23.352;2023-05-07T05:50:38;26.33;;;15.02;;
41233;SDS011;26968;42.686;23.352;2023-05-07T05:53:03;21.33;;;13.63;;
41233;SDS011;26968;42.686;23.352;2023-05-07T05:55:29;21.85;;;14.13;;
41233;SDS011;26968;42.686;23.352;2023-05-07T05:57:57;26.48;;;14.18;;
41233;SDS011;26968;42.686;23.352;2023-05-07T06:00:23;22.73;;;12.93;;
41233;SDS011;26968;42.686;23.352;2023-05-07T06:02:48;18.65;;;13.98;;
41233;SDS011;26968;42.686;23.352;2023-05-07T06:05:13;19.83;;;13.55;;
41233;SDS011;26968;42.686;23.352;2023-05-07T06:07:39;25.08;;;14.18;;
41233;SDS011;26968;42.686;23.352;2023-05-07T06:10:05;19.38;;;13.52;;
41233;SDS011;26968;42.686;23.352;2023-05-07T06:12:31;22.42;;;13.50;;
41233;SDS011;26968;42.686;23.352;2023-05-07T06:14:57;22.20;;;14.10;;
41233;SDS011;26968;42.686;23.352;2023-05-07T06:17:22;23.40;;;15.13;;
41233;SDS011;26968;42.686;23.352;2023-05-07T06:19:48;24.60;;;12.80;;
41233;SDS011;26968;42.686;23.352;2023-05-07T06:22:13;26.55;;;14.13;;
41233;SDS011;26968;42.686;23.352;2023-05-07T06:24:38;22.77;;;14.65;;
41233;SDS011;26968;42.686;23.352;2023-05-07T06:27:04;21.92;;;14.07;;
41233;SDS011;26968;42.686;23.352;2023-05-07T06:29:29;18.15;;;12.85;;
41233;SDS011;26968;42.686;23.352;2023-05-07T06:32:05;24.90;;;12.75;;
41233;SDS011;26968;42.686;23.352;2023-05-07T06:34:31;21.05;;;13.02;;
41233;SDS011;26968;42.686;23.352;2023-05-07T06:36:57;19.30;;;12.10;;
41233;SDS011;26968;42.686;23.352;2023-05-07T06:39:23;21.40;;;13.55;;
41233;SDS011;26968;42.686;23.352;2023-05-07T06:41:48;25.27;;;13.23;;
41233;SDS011;26968;42.686;23.352;2023-05-07T06:44:13;23.58;;;12.82;;
41233;SDS011;26968;42.686;23.352;2023-05-07T06:46:40;19.40;;;13.10;;
41233;SDS011;26968;42.686;23.352;2023-05-07T06:49:06;21.83;;;14.10;;
41233;SDS011;26968;42.686;23.352;2023-05-07T06:51:32;22.52;;;13.63;;
41233;SDS011;26968;42.686;23.352;2023-05-07T06:53:57;21.92;;;14.10;;
41233;SDS011;26968;42.686;23.352;2023-05-07T06:56:23;23.08;;;14.70;;
41233;SDS011;26968;42.686;23.352;2023-05-07T06:58:49;27.40;;;15.70;;
41233;SDS011;26968;42.686;23.352;2023-05-07T07:01:14;25.42;;;16.20;;
41233;SDS011;26968;42.686;23.352;2023-05-07T07:03:40;24.27;;;15.00;;
41233;SDS011;26968;42.686;23.352;2023-05-07T07:06:05;25.88;;;15.88;;
41233;SDS011;26968;42.686;23.352;2023-05-07T07:08:31;25.27;;;15.35;;
41233;SDS011;26968;42.686;23.352;2023-05-07T07:10:57;24.42;;;15.25;;
41233;SDS011;26968;42.686;23.352;2023-05-07T07:13:22;24.90;;;15.45;;
41233;SDS011;26968;42.686;23.352;2023-05-07T07:15:48;24.42;;;14.88;;
41233;SDS011;26968;42.686;23.352;2023-05-07T07:18:13;22.42;;;15.15;;
41233;SDS011;26968;42.686;23.352;2023-05-07T07:20:39;25.85;;;14.48;;
41233;SDS011;26968;42.686;23.352;2023-05-07T07:23:04;23.80;;;15.43;;
41233;SDS011;26968;42.686;23.352;2023-05-07T07:25:30;21.48;;;15.00;;
41233;SDS011;26968;42.686;23.352;2023-05-07T07:27:55;32.10;;;15.25;;
41233;SDS011;26968;42.686;23.352;2023-05-07T07:30:21;32.80;;;14.75;;
41233;SDS011;26968;42.686;23.352;2023-05-07T07:32:46;21.33;;;13.63;;
41233;SDS011;26968;42.686;23.352;2023-05-07T07:35:12;27.25;;;14.13;;
41233;SDS011;26968;42.686;23.352;2023-05-07T07:37:37;23.88;;;13.70;;
41233;SDS011;26968;42.686;23.352;2023-05-07T07:40:03;22.85;;;14.13;;
41233;SDS011;26968;42.686;23.352;2023-05-07T07:42:28;23.48;;;13.88;;
41233;SDS011;26968;42.686;23.352;2023-05-07T07:44:54;23.88;;;15.07;;
41233;SDS011;26968;42.686;23.352;2023-05-07T07:47:20;24.40;;;14.95;;
41233;SDS011;26968;42.686;23.352;2023-05-07T07:49:45;28.58;;;15.32;;
41233;SDS011;26968;42.686;23.352;2023-05-07T07:52:11;24.30;;;13.50;;
41233;SDS011;26968;42.686;23.352;2023-05-07T07:54:36;26.45;;;14.10;;
41233;SDS011;26968;42.686;23.352;2023-05-07T07:57:02;20.65;;;13.63;;
41233;SDS011;26968;42.686;23.352;2023-05-07T07:59:27;23.17;;;14.07;;
41233;SDS011;26968;42.686;23.352;2023-05-07T08:01:52;22.42;;;14.13;;
41233;SDS011;26968;42.686;23.352;2023-05-07T08:04:20;21.25;;;12.82;;
41233;SDS011;26968;42.686;23.352;2023-05-07T08:06:46;19.92;;;13.07;;
41233;SDS011;26968;42.686;23.352;2023-05-07T08:09:11;21.20;;;13.05;;
41233;SDS011;26968;42.686;23.352;2023-05-07T08:11:38;19.20;;;12.55;;
41233;SDS011;26968;42.686;23.352;2023-05-07T08:14:03;19.98;;;12.75;;
41233;SDS011;26968;42.686;23.352;2023-05-07T08:16:29;23.35;;;12.57;;
41233;SDS011;26968;42.686;23.352;2023-05-07T08:18:55;22.35;;;14.10;;
41233;SDS011;26968;42.686;23.352;2023-05-07T08:21:21;22.40;;;13.07;;
41233;SDS011;26968;42.686;23.352;2023-05-07T08:23:47;19.08;;;11.98;;
41233;SDS011;26968;42.686;23.352;2023-05-07T08:26:12;21.92;;;11.50;;
41233;SDS011;26968;42.686;23.352;2023-05-07T08:28:38;21.60;;;12.00;;
41233;SDS011;26968;42.686;23.352;2023-05-07T08:31:04;18.15;;;12.38;;
41233;SDS011;26968;42.686;23.352;2023-05-07T08:33:30;18.80;;;12.45;;
41233;SDS011;26968;42.686;23.352;2023-05-07T08:35:55;20.65;;;12.25;;
41233;SDS011;26968;42.686;23.352;2023-05-07T08:38:21;21.40;;;10.27;;
41233;SDS011;26968;42.686;23.352;2023-05-07T08:40:46;17.38;;;9.98;;
41233;SDS011;26968;42.686;23.352;2023-05-07T08:43:13;17.05;;;9.60;;
41233;SDS011;26968;42.686;23.352;2023-05-07T08:45:39;17.63;;;10.35;;
41233;SDS011;26968;42.686;23.352;2023-05-07T08:48:08;13.02;;;9.85;;
41233;SDS011;26968;42.686;23.352;2023-05-07T08:50:39;13.73;;;9.07;;
41233;SDS011;26968;42.686;23.352;2023-05-07T08:53:05;14.88;;;9.27;;
41233;SDS011;26968;42.686;23.352;2023-05-07T08:55:31;11.85;;;8.18;;
41233;SDS011;26968;42.686;23.352;2023-05-07T08:57:58;13.82;;;8.82;;
41233;SDS011;26968;42.686;23.352;2023-05-07T09:00:23;15.45;;;7.97;;
41233;SDS011;26968;42.686;23.352;2023-05-07T09:02:49;15.98;;;8.88;;
41233;SDS011;26968;42.686;23.352;2023-05-07T09:05:15;15.85;;;8.02;;
41233;SDS011;26968;42.686;23.352;2023-05-07T09:07:40;13.55;;;9.10;;
41233;SDS011;26968;42.686;23.352;2023-05-07T09:10:06;14.52;;;7.55;;
41233;SDS011;26968;42.686;23.352;2023-05-07T09:12:32;17.17;;;7.80;;
41233;SDS011;26968;42.686;23.352;2023-05-07T09:15:00;9.77;;;6.28;;
41233;SDS011;26968;42.686;23.352;2023-05-07T09:17:26;13.65;;;7.35;;
41233;SDS011;26968;42.686;23.352;2023-05-07T09:19:51;15.00;;;7.95;;
41233;SDS011;26968;42.686;23.352;2023-05-07T09:22:18;10.68;;;6.63;;
41233;SDS011;26968;42.686;23.352;2023-05-07T09:24:47;16.35;;;7.28;;
41233;SDS011;26968;42.686;23.352;2023-05-07T09:27:14;11.05;;;6.43;;
41233;SDS011;26968;42.686;23.352;2023-05-07T09:29:39;10.88;;;6.78;;
41233;SDS011;26968;42.686;23.352;2023-05-07T09:32:05;10.38;;;6.25;;
41233;SDS011;26968;42.686;23.352;2023-05-07T09:34:31;8.52;;;5.57;;
41233;SDS011;26968;42.686;23.352;2023-05-07T09:36:58;11.90;;;6.03;;
41233;SDS011;26968;42.686;23.352;2023-05-07T09:39:25;9.25;;;6.05;;
41233;SDS011;26968;42.686;23.352;2023-05-07T09:41:51;12.85;;;5.22;;
41233;SDS011;26968;42.686;23.352;2023-05-07T09:44:19;10.25;;;5.45;;
41233;SDS011;26968;42.686;23.352;2023-05-07T09:46:45;9.10;;;4.97;;
41233;SDS011;26968;42.686;23.352;2023-05-07T09:49:20;8.95;;;4.72;;
41233;SDS011;26968;42.686;23.352;2023-05-07T09:51:48;13.18;;;5.47;;
41233;SDS011;26968;42.686;23.352;2023-05-07T09:54:16;14.77;;;5.57;;
41233;SDS011;26968;42.686;23.352;2023-05-07T09:56:45;10.35;;;5.55;;
41233;SDS011;26968;42.686;23.352;2023-05-07T09:59:13;10.30;;;5.13;;
41233;SDS011;26968;42.686;23.352;2023-05-07T10:01:41;10.45;;;4.28;;
41233;SDS011;26968;42.686;23.352;2023-05-07T10:04:07;8.65;;;4.57;;
41233;SDS011;26968;42.686;23.352;2023-05-07T10:06:34;13.20;;;4.68;;
41233;SDS011;26968;42.686;23.352;2023-05-07T10:09:00;5.95;;;3.90;;
41233;SDS011;26968;42.686;23.352;2023-05-07T10:11:27;6.75;;;3.80;;
41233;SDS011;26968;42.686;23.352;2023-05-07T10:13:53;6.32;;;3.65;;
41233;SDS011;26968;42.686;23.352;2023-05-07T10:16:19;12.52;;;4.75;;
41233;SDS011;26968;42.686;23.352;2023-05-07T10:18:46;6.43;;;3.88;;
41233;SDS011;26968;42.686;23.352;2023-05-07T10:21:17;8.23;;;3.85;;
41233;SDS011;26968;42.686;23.352;2023-05-07T10:23:45;7.15;;;3.60;;
41233;SDS011;26968;42.686;23.352;2023-05-07T10:26:13;3.92;;;2.83;;
41233;SDS011;26968;42.686;23.352;2023-05-07T10:28:41;5.70;;;3.40;;
41233;SDS011;26968;42.686;23.352;2023-05-07T10:31:25;7.78;;;3.95;;
41233;SDS011;26968;42.686;23.352;2023-05-07T10:33:56;12.93;;;5.38;;
41233;SDS011;26968;42.686;23.352;2023-05-07T10:36:24;6.28;;;3.33;;
41233;SDS011;26968;42.686;23.352;2023-05-07T10:38:50;6.25;;;3.63;;
41233;SDS011;26968;42.686;23.352;2023-05-07T10:41:16;5.70;;;3.35;;
41233;SDS011;26968;42.686;23.352;2023-05-07T10:43:44;5.93;;;3.25;;
41233;SDS011;26968;42.686;23.352;2023-05-07T10:46:17;9.45;;;4.10;;
41233;SDS011;26968;42.686;23.352;2023-05-07T10:51:28;7.78;;;3.58;;
41233;SDS011;26968;42.686;23.352;2023-05-07T10:54:40;6.47;;;3.70;;
41233;SDS011;26968;42.686;23.352;2023-05-07T10:56:44;9.55;;;3.45;;
41233;SDS011;26968;42.686;23.352;2023-05-07T11:01:49;6.68;;;3.58;;
41233;SDS011;26968;42.686;23.352;2023-05-07T11:04:15;5.85;;;3.63;;
41233;SDS011;26968;42.686;23.352;2023-05-07T11:06:42;6.50;;;3.08;;
41233;SDS011;26968;42.686;23.352;2023-05-07T11:12:32;3.72;;;3.22;;
41233;SDS011;26968;42.686;23.352;2023-05-07T11:15:03;4.55;;;3.53;;
41233;SDS011;26968;42.686;23.352;2023-05-07T11:17:33;7.47;;;3.85;;
41233;SDS011;26968;42.686;23.352;2023-05-07T11:20:02;10.20;;;3.90;;
41233;SDS011;26968;42.686;23.352;2023-05-07T11:25:02;5.00;;;3.00;;
41233;SDS011;26968;42.686;23.352;2023-05-07T11:27:29;3.92;;;3.33;;
41233;SDS011;26968;42.686;23.352;2023-05-07T11:29:55;5.68;;;3.20;;
41233;SDS011;26968;42.686;23.352;2023-05-07T11:32:24;7.60;;;3.63;;
41233;SDS011;26968;42.686;23.352;2023-05-07T11:34:57;5.60;;;3.10;;
41233;SDS011;26968;42.686;23.352;2023-05-07T11:37:24;6.17;;;3.50;;
41233;SDS011;26968;42.686;23.352;2023-05-07T11:39:51;4.85;;;3.47;;
41233;SDS011;26968;42.686;23.352;2023-05-07T11:42:29;6.20;;;3.00;;
41233;SDS011;26968;42.686;23.352;2023-05-07T11:44:57;8.50;;;3.50;;
41233;SDS011;26968;42.686;23.352;2023-05-07T11:47:23;6.13;;;3.42;;
41233;SDS011;26968;42.686;23.352;2023-05-07T11:49:50;5.03;;;3.40;;
41233;SDS011;26968;42.686;23.352;2023-05-07T11:52:18;9.05;;;2.80;;
41233;SDS011;26968;42.686;23.352;2023-05-07T11:54:55;7.07;;;3.13;;
41233;SDS011;26968;42.686;23.352;2023-05-07T11:57:22;5.00;;;3.03;;
41233;SDS011;26968;42.686;23.352;2023-05-07T11:59:52;9.32;;;3.17;;
41233;SDS011;26968;42.686;23.352;2023-05-07T12:02:25;5.38;;;3.42;;
41233;SDS011;26968;42.686;23.352;2023-05-07T12:04:51;7.00;;;3.03;;
41233;SDS011;26968;42.686;23.352;2023-05-07T12:07:17;6.18;;;3.05;;
41233;SDS011;26968;42.686;23.352;2023-05-07T12:09:45;3.85;;;3.00;;
41233;SDS011;26968;42.686;23.352;2023-05-07T12:12:12;5.63;;;2.78;;
41233;SDS011;26968;42.686;23.352;2023-05-07T12:14:43;4.43;;;3.15;;
41233;SDS011;26968;42.686;23.352;2023-05-07T12:17:10;4.72;;;3.55;;
41233;SDS011;26968;42.686;23.352;2023-05-07T12:19:38;6.03;;;3.30;;
41233;SDS011;26968;42.686;23.352;2023-05-07T12:22:05;5.82;;;2.90;;
41233;SDS011;26968;42.686;23.352;2023-05-07T12:24:49;7.47;;;3.40;;
41233;SDS011;26968;42.686;23.352;2023-05-07T12:27:21;6.32;;;2.85;;
41233;SDS011;26968;42.686;23.352;2023-05-07T12:29:47;3.83;;;2.90;;
41233;SDS011;26968;42.686;23.352;2023-05-07T12:32:17;4.13;;;2.65;;
41233;SDS011;26968;42.686;23.352;2023-05-07T12:34:45;7.00;;;3.03;;
41233;SDS011;26968;42.686;23.352;2023-05-07T12:37:11;6.93;;;3.50;;
41233;SDS011;26968;42.686;23.352;2023-05-07T12:39:50;4.47;;;2.88;;
41233;SDS011;26968;42.686;23.352;2023-05-07T12:42:32;5.88;;;2.80;;
41233;SDS011;26968;42.686;23.352;2023-05-07T12:45:07;3.22;;;2.00;;
41233;SDS011;26968;42.686;23.352;2023-05-07T12:47:35;7.25;;;2.95;;
41233;SDS011;26968;42.686;23.352;2023-05-07T12:50:04;4.45;;;2.17;;
41233;SDS011;26968;42.686;23.352;2023-05-07T12:52:31;6.25;;;2.72;;
41233;SDS011;26968;42.686;23.352;2023-05-07T12:54:57;6.10;;;2.72;;
41233;SDS011;26968;42.686;23.352;2023-05-07T12:57:30;4.80;;;3.70;;
41233;SDS011;26968;42.686;23.352;2023-05-07T12:59:57;6.78;;;2.72;;
41233;SDS011;26968;42.686;23.352;2023-05-07T13:02:31;5.90;;;2.45;;
41233;SDS011;26968;42.686;23.352;2023-05-07T13:05:02;4.45;;;2.42;;
41233;SDS011;26968;42.686;23.352;2023-05-07T13:07:27;7.85;;;2.47;;
41233;SDS011;26968;42.686;23.352;2023-05-07T13:09:53;5.13;;;2.63;;
41233;SDS011;26968;42.686;23.352;2023-05-07T13:12:18;6.25;;;1.90;;
41233;SDS011;26968;42.686;23.352;2023-05-07T13:14:44;4.90;;;2.25;;
41233;SDS011;26968;42.686;23.352;2023-05-07T13:17:09;3.53;;;2.00;;
41233;SDS011;26968;42.686;23.352;2023-05-07T13:19:35;2.47;;;2.13;;
41233;SDS011;26968;42.686;23.352;2023-05-07T13:22:02;5.03;;;2.22;;
41233;SDS011;26968;42.686;23.352;2023-05-07T13:24:28;3.22;;;2.30;;
41233;SDS011;26968;42.686;23.352;2023-05-07T13:26:53;4.90;;;2.33;;
41233;SDS011;26968;42.686;23.352;2023-05-07T13:29:19;4.60;;;2.78;;
41233;SDS011;26968;42.686;23.352;2023-05-07T13:31:44;4.90;;;3.42;;
41233;SDS011;26968;42.686;23.352;2023-05-07T13:34:10;4.55;;;2.53;;
41233;SDS011;26968;42.686;23.352;2023-05-07T13:36:35;3.58;;;2.30;;
41233;SDS011;26968;42.686;23.352;2023-05-07T13:39:04;5.28;;;2.30;;
41233;SDS011;26968;42.686;23.352;2023-05-07T13:41:31;4.65;;;2.40;;
41233;SDS011;26968;42.686;23.352;2023-05-07T13:43:56;3.45;;;2.05;;
41233;SDS011;26968;42.686;23.352;2023-05-07T13:46:22;3.22;;;2.40;;
41233;SDS011;26968;42.686;23.352;2023-05-07T13:48:47;4.50;;;2.65;;
41233;SDS011;26968;42.686;23.352;2023-05-07T13:51:12;6.13;;;2.90;;
41233;SDS011;26968;42.686;23.352;2023-05-07T13:53:38;7.28;;;3.28;;
41233;SDS011;26968;42.686;23.352;2023-05-07T13:56:03;4.05;;;2.30;;
41233;SDS011;26968;42.686;23.352;2023-05-07T13:58:30;4.32;;;2.35;;
41233;SDS011;26968;42.686;23.352;2023-05-07T14:00:55;4.78;;;2.20;;
41233;SDS011;26968;42.686;23.352;2023-05-07T14:03:21;5.03;;;2.85;;
41233;SDS011;26968;42.686;23.352;2023-05-07T14:05:47;10.43;;;2.63;;
41233;SDS011;26968;42.686;23.352;2023-05-07T14:08:12;4.95;;;2.65;;
41233;SDS011;26968;42.686;23.352;2023-05-07T14:10:39;8.98;;;2.38;;
41233;SDS011;26968;42.686;23.352;2023-05-07T14:13:05;4.65;;;2.25;;
41233;SDS011;26968;42.686;23.352;2023-05-07T14:15:31;5.38;;;2.90;;
41233;SDS011;26968;42.686;23.352;2023-05-07T14:17:57;8.63;;;2.50;;
41233;SDS011;26968;42.686;23.352;2023-05-07T14:20:24;4.68;;;2.63;;
41233;SDS011;26968;42.686;23.352;2023-05-07T14:22:50;2.85;;;2.13;;
41233;SDS011;26968;42.686;23.352;2023-05-07T14:25:15;6.00;;;2.72;;